sensor_id;sensor_type;location;lat;lon;timestamp;P1;durP1;ratioP1;P2;durP2;ratioP2
789;SDS011;378;48.844;9.156;2023-07-02T00:01:20;8.93;;;4.63;;
789;SDS011;378;48.844;9.156;2023-07-02T00:03:47;7.93;;;4.50;;
789;SDS011;378;48.844;9.156;2023-07-02T00:06:13;8.05;;;4.20;;
789;SDS011;378;48.844;9.156;2023-07-02T00:08:42;9.07;;;5.20;;
789;SDS011;378;48.844;9.156;2023-07-02T00:11:09;6.72;;;3.85;;
789;SDS011;378;48.844;9.156;2023-07-02T00:13:39;9.27;;;4.45;;
789;SDS011;378;48.844;9.156;2023-07-02T00:16:05;9.70;;;4.32;;
789;SDS011;378;48.844;9.156;2023-07-02T00:18:32;6.35;;;4.28;;
789;SDS011;378;48.844;9.156;2023-07-02T00:21:00;7.90;;;4.55;;
789;SDS011;378;48.844;9.156;2023-07-02T00:23:27;8.57;;;4.30;;
789;SDS011;378;48.844;9.156;2023-07-02T00:25:54;8.35;;;4.03;;
789;SDS011;378;48.844;9.156;2023-07-02T00:28:21;8.60;;;4.38;;
789;SDS011;378;48.844;9.156;2023-07-02T00:30:49;9.00;;;4.30;;
789;SDS011;378;48.844;9.156;2023-07-02T00:33:16;6.88;;;4.10;;
789;SDS011;378;48.844;9.156;2023-07-02T00:35:43;7.93;;;4.53;;
789;SDS011;378;48.844;9.156;2023-07-02T00:38:10;8.15;;;4.00;;
789;SDS011;378;48.844;9.156;2023-07-02T00:40:37;10.98;;;4.10;;
789;SDS011;378;48.844;9.156;2023-07-02T00:43:03;7.18;;;4.05;;
789;SDS011;378;48.844;9.156;2023-07-02T00:45:30;8.95;;;3.72;;
789;SDS011;378;48.844;9.156;2023-07-02T00:47:58;7.50;;;4.13;;
789;SDS011;378;48.844;9.156;2023-07-02T00:50:25;6.18;;;4.47;;
789;SDS011;378;48.844;9.156;2023-07-02T00:52:52;5.40;;;4.15;;
789;SDS011;378;48.844;9.156;2023-07-02T00:55:20;8.52;;;3.50;;
789;SDS011;378;48.844;9.156;2023-07-02T00:57:47;5.88;;;3.28;;
789;SDS011;378;48.844;9.156;2023-07-02T01:00:14;5.32;;;3.22;;
789;SDS011;378;48.844;9.156;2023-07-02T01:02:41;7.47;;;3.72;;
789;SDS011;378;48.844;9.156;2023-07-02T01:05:10;8.13;;;3.30;;
789;SDS011;378;48.844;9.156;2023-07-02T01:07:40;6.05;;;3.53;;
789;SDS011;378;48.844;9.156;2023-07-02T01:10:07;6.43;;;3.38;;
789;SDS011;378;48.844;9.156;2023-07-02T01:12:34;6.47;;;3.22;;
789;SDS011;378;48.844;9.156;2023-07-02T01:15:02;5.85;;;3.40;;
789;SDS011;378;48.844;9.156;2023-07-02T01:17:31;7.63;;;3.30;;
789;SDS011;378;48.844;9.156;2023-07-02T01:20:07;6.82;;;3.28;;
789;SDS011;378;48.844;9.156;2023-07-02T01:22:35;4.78;;;3.20;;
789;SDS011;378;48.844;9.156;2023-07-02T01:25:02;5.80;;;3.38;;
789;SDS011;378;48.844;9.156;2023-07-02T01:27:30;3.67;;;2.90;;
789;SDS011;378;48.844;9.156;2023-07-02T01:30:00;6.97;;;3.42;;
789;SDS011;378;48.844;9.156;2023-07-02T01:32:27;4.82;;;3.10;;
789;SDS011;378;48.844;9.156;2023-07-02T01:34:54;6.32;;;3.22;;
789;SDS011;378;48.844;9.156;2023-07-02T01:37:22;6.53;;;2.72;;
789;SDS011;378;48.844;9.156;2023-07-02T01:39:49;5.72;;;3.70;;
789;SDS011;378;48.844;9.156;2023-07-02T01:42:17;7.68;;;3.15;;
789;SDS011;378;48.844;9.156;2023-07-02T01:44:46;8.10;;;3.65;;
789;SDS011;378;48.844;9.156;2023-07-02T01:47:14;6.72;;;3.33;;
789;SDS011;378;48.844;9.156;2023-07-02T01:49:41;6.82;;;3.38;;
789;SDS011;378;48.844;9.156;2023-07-02T01:52:08;6.07;;;3.40;;
789;SDS011;378;48.844;9.156;2023-07-02T01:54:37;4.88;;;3.53;;
789;SDS011;378;48.844;9.156;2023-07-02T01:57:04;9.07;;;3.30;;
789;SDS011;378;48.844;9.156;2023-07-02T01:59:31;7.72;;;3.50;;
789;SDS011;378;48.844;9.156;2023-07-02T02:01:58;8.80;;;3.70;;
789;SDS011;378;48.844;9.156;2023-07-02T02:04:25;7.10;;;3.53;;
789;SDS011;378;48.844;9.156;2023-07-02T02:06:51;6.38;;;3.72;;
789;SDS011;378;48.844;9.156;2023-07-02T02:09:18;6.97;;;3.42;;
789;SDS011;378;48.844;9.156;2023-07-02T02:11:47;6.05;;;3.35;;
789;SDS011;378;48.844;9.156;2023-07-02T02:14:15;5.78;;;3.65;;
789;SDS011;378;48.844;9.156;2023-07-02T02:16:42;6.40;;;3.53;;
789;SDS011;378;48.844;9.156;2023-07-02T02:19:11;3.92;;;3.20;;
789;SDS011;378;48.844;9.156;2023-07-02T02:21:39;7.88;;;3.42;;
789;SDS011;378;48.844;9.156;2023-07-02T02:24:06;4.57;;;3.15;;
789;SDS011;378;48.844;9.156;2023-07-02T02:26:33;9.25;;;3.70;;
789;SDS011;378;48.844;9.156;2023-07-02T02:29:02;5.50;;;3.38;;
789;SDS011;378;48.844;9.156;2023-07-02T02:31:28;5.30;;;3.58;;
789;SDS011;378;48.844;9.156;2023-07-02T02:33:55;4.43;;;3.10;;
789;SDS011;378;48.844;9.156;2023-07-02T02:36:22;4.32;;;2.88;;
789;SDS011;378;48.844;9.156;2023-07-02T02:38:49;5.13;;;3.13;;
789;SDS011;378;48.844;9.156;2023-07-02T02:41:16;7.43;;;3.33;;
789;SDS011;378;48.844;9.156;2023-07-02T02:43:43;6.90;;;3.13;;
789;SDS011;378;48.844;9.156;2023-07-02T02:46:11;7.40;;;2.80;;
789;SDS011;378;48.844;9.156;2023-07-02T02:48:38;3.47;;;2.60;;
789;SDS011;378;48.844;9.156;2023-07-02T02:51:05;6.68;;;3.03;;
789;SDS011;378;48.844;9.156;2023-07-02T02:53:32;4.47;;;3.10;;
789;SDS011;378;48.844;9.156;2023-07-02T02:55:59;7.72;;;3.30;;
789;SDS011;378;48.844;9.156;2023-07-02T02:58:26;8.52;;;3.40;;
789;SDS011;378;48.844;9.156;2023-07-02T03:00:53;4.43;;;2.70;;
789;SDS011;378;48.844;9.156;2023-07-02T03:03:21;6.03;;;3.22;;
789;SDS011;378;48.844;9.156;2023-07-02T03:05:49;4.45;;;2.75;;
789;SDS011;378;48.844;9.156;2023-07-02T03:08:16;5.55;;;2.85;;
789;SDS011;378;48.844;9.156;2023-07-02T03:10:43;5.03;;;2.55;;
789;SDS011;378;48.844;9.156;2023-07-02T03:13:09;4.88;;;2.60;;
789;SDS011;378;48.844;9.156;2023-07-02T03:15:36;7.32;;;2.90;;
789;SDS011;378;48.844;9.156;2023-07-02T03:18:03;6.75;;;3.42;;
789;SDS011;378;48.844;9.156;2023-07-02T03:20:32;6.68;;;3.88;;
789;SDS011;378;48.844;9.156;2023-07-02T03:22:59;8.75;;;3.80;;
789;SDS011;378;48.844;9.156;2023-07-02T03:25:26;8.88;;;3.35;;
789;SDS011;378;48.844;9.156;2023-07-02T03:27:53;9.48;;;3.92;;
789;SDS011;378;48.844;9.156;2023-07-02T03:30:20;7.03;;;4.00;;
789;SDS011;378;48.844;9.156;2023-07-02T03:32:46;12.90;;;4.90;;
789;SDS011;378;48.844;9.156;2023-07-02T03:35:13;7.22;;;4.15;;
789;SDS011;378;48.844;9.156;2023-07-02T03:37:42;11.98;;;4.47;;
789;SDS011;378;48.844;9.156;2023-07-02T03:40:09;16.60;;;4.50;;
789;SDS011;378;48.844;9.156;2023-07-02T03:42:36;11.52;;;4.72;;
789;SDS011;378;48.844;9.156;2023-07-02T03:45:03;16.02;;;4.65;;
789;SDS011;378;48.844;9.156;2023-07-02T03:47:30;11.93;;;4.18;;
789;SDS011;378;48.844;9.156;2023-07-02T03:49:57;15.35;;;4.50;;
789;SDS011;378;48.844;9.156;2023-07-02T03:52:23;16.30;;;4.97;;
789;SDS011;378;48.844;9.156;2023-07-02T03:54:52;11.57;;;4.47;;
789;SDS011;378;48.844;9.156;2023-07-02T03:57:19;11.35;;;4.65;;
789;SDS011;378;48.844;9.156;2023-07-02T03:59:45;12.98;;;5.07;;
789;SDS011;378;48.844;9.156;2023-07-02T04:02:12;11.85;;;4.85;;
789;SDS011;378;48.844;9.156;2023-07-02T04:04:39;10.50;;;4.15;;
789;SDS011;378;48.844;9.156;2023-07-02T04:07:06;16.88;;;5.15;;
789;SDS011;378;48.844;9.156;2023-07-02T04:09:33;12.80;;;4.72;;
789;SDS011;378;48.844;9.156;2023-07-02T04:12:01;12.05;;;5.00;;
789;SDS011;378;48.844;9.156;2023-07-02T04:14:28;12.13;;;5.25;;
789;SDS011;378;48.844;9.156;2023-07-02T04:16:55;15.35;;;5.07;;
789;SDS011;378;48.844;9.156;2023-07-02T04:19:22;13.50;;;5.40;;
789;SDS011;378;48.844;9.156;2023-07-02T04:21:48;12.27;;;5.03;;
789;SDS011;378;48.844;9.156;2023-07-02T04:24:15;13.15;;;5.18;;
789;SDS011;378;48.844;9.156;2023-07-02T04:26:42;11.57;;;5.15;;
789;SDS011;378;48.844;9.156;2023-07-02T04:29:11;17.27;;;5.43;;
789;SDS011;378;48.844;9.156;2023-07-02T04:31:38;15.18;;;4.80;;
789;SDS011;378;48.844;9.156;2023-07-02T04:34:04;15.82;;;4.60;;
789;SDS011;378;48.844;9.156;2023-07-02T04:36:31;14.18;;;5.13;;
789;SDS011;378;48.844;9.156;2023-07-02T04:38:58;12.63;;;4.80;;
789;SDS011;378;48.844;9.156;2023-07-02T04:41:25;10.52;;;5.05;;
789;SDS011;378;48.844;9.156;2023-07-02T04:43:54;13.07;;;5.13;;
789;SDS011;378;48.844;9.156;2023-07-02T04:46:22;9.88;;;4.00;;
789;SDS011;378;48.844;9.156;2023-07-02T04:48:49;11.75;;;4.07;;
789;SDS011;378;48.844;9.156;2023-07-02T04:51:16;9.52;;;4.10;;
789;SDS011;378;48.844;9.156;2023-07-02T04:53:43;9.40;;;3.85;;
789;SDS011;378;48.844;9.156;2023-07-02T04:56:10;10.95;;;3.70;;
789;SDS011;378;48.844;9.156;2023-07-02T04:58:37;9.32;;;3.42;;
789;SDS011;378;48.844;9.156;2023-07-02T05:01:03;9.32;;;3.50;;
789;SDS011;378;48.844;9.156;2023-07-02T05:03:32;9.90;;;3.60;;
789;SDS011;378;48.844;9.156;2023-07-02T05:05:59;10.93;;;3.78;;
789;SDS011;378;48.844;9.156;2023-07-02T05:08:26;7.75;;;3.25;;
789;SDS011;378;48.844;9.156;2023-07-02T05:10:53;8.80;;;3.40;;
789;SDS011;378;48.844;9.156;2023-07-02T05:13:19;10.10;;;3.58;;
789;SDS011;378;48.844;9.156;2023-07-02T05:15:46;10.43;;;3.63;;
789;SDS011;378;48.844;9.156;2023-07-02T05:18:14;8.95;;;3.28;;
789;SDS011;378;48.844;9.156;2023-07-02T05:20:42;7.13;;;3.20;;
789;SDS011;378;48.844;9.156;2023-07-02T05:23:09;7.47;;;3.10;;
789;SDS011;378;48.844;9.156;2023-07-02T05:25:36;5.97;;;2.95;;
789;SDS011;378;48.844;9.156;2023-07-02T05:28:02;6.10;;;3.13;;
789;SDS011;378;48.844;9.156;2023-07-02T05:30:29;6.75;;;3.00;;
789;SDS011;378;48.844;9.156;2023-07-02T05:32:56;10.70;;;2.88;;
789;SDS011;378;48.844;9.156;2023-07-02T05:35:23;5.13;;;2.80;;
789;SDS011;378;48.844;9.156;2023-07-02T05:37:51;6.93;;;3.08;;
789;SDS011;378;48.844;9.156;2023-07-02T05:40:18;7.10;;;2.88;;
789;SDS011;378;48.844;9.156;2023-07-02T05:42:45;7.93;;;3.25;;
789;SDS011;378;48.844;9.156;2023-07-02T05:45:12;6.20;;;3.35;;
789;SDS011;378;48.844;9.156;2023-07-02T05:47:39;5.93;;;2.83;;
789;SDS011;378;48.844;9.156;2023-07-02T05:50:07;8.40;;;2.80;;
789;SDS011;378;48.844;9.156;2023-07-02T05:52:35;7.18;;;3.67;;
789;SDS011;378;48.844;9.156;2023-07-02T05:55:03;10.88;;;3.92;;
789;SDS011;378;48.844;9.156;2023-07-02T05:57:30;14.07;;;4.65;;
789;SDS011;378;48.844;9.156;2023-07-02T05:59:57;11.98;;;4.38;;
789;SDS011;378;48.844;9.156;2023-07-02T06:02:24;9.32;;;4.10;;
789;SDS011;378;48.844;9.156;2023-07-02T06:04:51;12.40;;;4.32;;
789;SDS011;378;48.844;9.156;2023-07-02T06:07:18;8.43;;;4.07;;
789;SDS011;378;48.844;9.156;2023-07-02T06:09:44;12.30;;;4.40;;
789;SDS011;378;48.844;9.156;2023-07-02T06:12:13;11.63;;;4.68;;
789;SDS011;378;48.844;9.156;2023-07-02T06:14:39;11.52;;;4.93;;
789;SDS011;378;48.844;9.156;2023-07-02T06:17:07;10.15;;;4.72;;
789;SDS011;378;48.844;9.156;2023-07-02T06:19:35;13.30;;;4.60;;
789;SDS011;378;48.844;9.156;2023-07-02T06:22:02;11.48;;;4.28;;
789;SDS011;378;48.844;9.156;2023-07-02T06:24:30;9.63;;;4.45;;
789;SDS011;378;48.844;9.156;2023-07-02T06:26:57;12.32;;;5.70;;
789;SDS011;378;48.844;9.156;2023-07-02T06:29:25;14.90;;;5.60;;
789;SDS011;378;48.844;9.156;2023-07-02T06:31:53;16.08;;;5.80;;
789;SDS011;378;48.844;9.156;2023-07-02T06:34:20;11.80;;;5.32;;
789;SDS011;378;48.844;9.156;2023-07-02T06:36:47;16.52;;;6.43;;
789;SDS011;378;48.844;9.156;2023-07-02T06:39:14;14.13;;;5.60;;
789;SDS011;378;48.844;9.156;2023-07-02T06:41:41;17.55;;;5.65;;
789;SDS011;378;48.844;9.156;2023-07-02T06:44:08;14.32;;;5.28;;
789;SDS011;378;48.844;9.156;2023-07-02T06:46:36;14.80;;;5.30;;
789;SDS011;378;48.844;9.156;2023-07-02T06:49:03;13.20;;;5.28;;
789;SDS011;378;48.844;9.156;2023-07-02T06:51:30;16.50;;;5.28;;
789;SDS011;378;48.844;9.156;2023-07-02T06:53:58;11.88;;;5.47;;
789;SDS011;378;48.844;9.156;2023-07-02T06:56:25;13.23;;;5.22;;
789;SDS011;378;48.844;9.156;2023-07-02T06:58:52;11.23;;;5.00;;
789;SDS011;378;48.844;9.156;2023-07-02T07:01:19;14.48;;;5.38;;
789;SDS011;378;48.844;9.156;2023-07-02T07:03:47;9.63;;;4.85;;
789;SDS011;378;48.844;9.156;2023-07-02T07:06:14;18.00;;;5.78;;
789;SDS011;378;48.844;9.156;2023-07-02T07:08:41;14.77;;;5.70;;
789;SDS011;378;48.844;9.156;2023-07-02T07:11:08;12.85;;;5.65;;
789;SDS011;378;48.844;9.156;2023-07-02T07:13:35;16.30;;;7.38;;
789;SDS011;378;48.844;9.156;2023-07-02T07:16:01;18.63;;;6.57;;
789;SDS011;378;48.844;9.156;2023-07-02T07:18:29;13.25;;;6.88;;
789;SDS011;378;48.844;9.156;2023-07-02T07:20:57;15.77;;;7.35;;
789;SDS011;378;48.844;9.156;2023-07-02T07:23:24;14.98;;;7.43;;
789;SDS011;378;48.844;9.156;2023-07-02T07:25:50;17.38;;;8.48;;
789;SDS011;378;48.844;9.156;2023-07-02T07:28:17;18.23;;;8.45;;
789;SDS011;378;48.844;9.156;2023-07-02T07:30:44;17.17;;;8.00;;
789;SDS011;378;48.844;9.156;2023-07-02T07:33:11;19.00;;;9.35;;
789;SDS011;378;48.844;9.156;2023-07-02T07:35:38;23.40;;;10.02;;
789;SDS011;378;48.844;9.156;2023-07-02T07:38:06;22.65;;;9.20;;
789;SDS011;378;48.844;9.156;2023-07-02T07:40:33;17.90;;;8.48;;
789;SDS011;378;48.844;9.156;2023-07-02T07:43:00;20.92;;;8.93;;
789;SDS011;378;48.844;9.156;2023-07-02T07:45:26;18.98;;;9.10;;
789;SDS011;378;48.844;9.156;2023-07-02T07:47:53;21.63;;;9.50;;
789;SDS011;378;48.844;9.156;2023-07-02T07:50:20;22.75;;;9.88;;
789;SDS011;378;48.844;9.156;2023-07-02T07:52:47;24.20;;;10.13;;
789;SDS011;378;48.844;9.156;2023-07-02T07:55:15;22.80;;;10.00;;
789;SDS011;378;48.844;9.156;2023-07-02T07:57:42;24.23;;;10.10;;
789;SDS011;378;48.844;9.156;2023-07-02T08:00:10;24.20;;;10.98;;
789;SDS011;378;48.844;9.156;2023-07-02T08:02:37;22.30;;;10.05;;
789;SDS011;378;48.844;9.156;2023-07-02T08:05:04;21.80;;;10.73;;
789;SDS011;378;48.844;9.156;2023-07-02T08:07:32;21.00;;;10.27;;
789;SDS011;378;48.844;9.156;2023-07-02T08:09:59;22.77;;;10.40;;
789;SDS011;378;48.844;9.156;2023-07-02T08:12:28;19.88;;;10.07;;
789;SDS011;378;48.844;9.156;2023-07-02T08:14:55;22.25;;;10.32;;
789;SDS011;378;48.844;9.156;2023-07-02T08:17:22;20.80;;;10.75;;
789;SDS011;378;48.844;9.156;2023-07-02T08:19:49;22.33;;;10.90;;
789;SDS011;378;48.844;9.156;2023-07-02T08:22:16;23.15;;;10.82;;
789;SDS011;378;48.844;9.156;2023-07-02T08:24:43;23.05;;;11.18;;
789;SDS011;378;48.844;9.156;2023-07-02T08:27:09;22.15;;;10.93;;
789;SDS011;378;48.844;9.156;2023-07-02T08:29:40;24.67;;;11.00;;
789;SDS011;378;48.844;9.156;2023-07-02T08:32:07;21.73;;;10.63;;
789;SDS011;378;48.844;9.156;2023-07-02T08:34:37;23.85;;;11.27;;
789;SDS011;378;48.844;9.156;2023-07-02T08:37:16;23.65;;;10.85;;
789;SDS011;378;48.844;9.156;2023-07-02T08:39:44;21.63;;;9.88;;
789;SDS011;378;48.844;9.156;2023-07-02T08:42:10;22.67;;;10.38;;
789;SDS011;378;48.844;9.156;2023-07-02T08:44:37;19.02;;;9.73;;
789;SDS011;378;48.844;9.156;2023-07-02T08:47:06;26.58;;;10.90;;
789;SDS011;378;48.844;9.156;2023-07-02T08:49:33;21.30;;;10.02;;
789;SDS011;378;48.844;9.156;2023-07-02T08:52:00;24.13;;;11.35;;
789;SDS011;378;48.844;9.156;2023-07-02T08:54:27;20.98;;;10.38;;
789;SDS011;378;48.844;9.156;2023-07-02T08:56:54;20.95;;;10.75;;
789;SDS011;378;48.844;9.156;2023-07-02T08:59:21;23.83;;;10.77;;
789;SDS011;378;48.844;9.156;2023-07-02T09:01:50;18.42;;;10.30;;
789;SDS011;378;48.844;9.156;2023-07-02T09:04:18;20.98;;;10.40;;
789;SDS011;378;48.844;9.156;2023-07-02T09:06:46;25.80;;;10.63;;
789;SDS011;378;48.844;9.156;2023-07-02T09:09:13;20.85;;;10.07;;
789;SDS011;378;48.844;9.156;2023-07-02T09:11:46;19.02;;;10.40;;
789;SDS011;378;48.844;9.156;2023-07-02T09:14:23;19.45;;;10.40;;
789;SDS011;378;48.844;9.156;2023-07-02T09:17:02;25.15;;;10.45;;
789;SDS011;378;48.844;9.156;2023-07-02T09:19:30;27.20;;;11.18;;
789;SDS011;378;48.844;9.156;2023-07-02T09:21:57;19.38;;;10.20;;
789;SDS011;378;48.844;9.156;2023-07-02T09:24:25;22.70;;;10.30;;
789;SDS011;378;48.844;9.156;2023-07-02T09:26:53;22.00;;;10.48;;
789;SDS011;378;48.844;9.156;2023-07-02T09:29:22;25.67;;;10.98;;
789;SDS011;378;48.844;9.156;2023-07-02T09:31:49;23.35;;;10.48;;
789;SDS011;378;48.844;9.156;2023-07-02T09:34:18;20.60;;;9.70;;
789;SDS011;378;48.844;9.156;2023-07-02T09:36:44;21.38;;;10.73;;
789;SDS011;378;48.844;9.156;2023-07-02T09:39:12;25.02;;;10.90;;
789;SDS011;378;48.844;9.156;2023-07-02T09:41:40;26.02;;;10.63;;
789;SDS011;378;48.844;9.156;2023-07-02T09:44:08;18.30;;;9.73;;
789;SDS011;378;48.844;9.156;2023-07-02T09:46:36;23.95;;;10.45;;
789;SDS011;378;48.844;9.156;2023-07-02T09:49:08;21.40;;;10.05;;
789;SDS011;378;48.844;9.156;2023-07-02T09:51:41;22.30;;;10.55;;
789;SDS011;378;48.844;9.156;2023-07-02T09:54:09;20.50;;;10.75;;
789;SDS011;378;48.844;9.156;2023-07-02T09:56:36;20.50;;;11.15;;
789;SDS011;378;48.844;9.156;2023-07-02T09:59:03;24.40;;;11.13;;
789;SDS011;378;48.844;9.156;2023-07-02T10:01:30;21.27;;;11.00;;
789;SDS011;378;48.844;9.156;2023-07-02T10:03:57;21.02;;;11.07;;
789;SDS011;378;48.844;9.156;2023-07-02T10:06:24;21.08;;;11.13;;
789;SDS011;378;48.844;9.156;2023-07-02T10:08:55;23.23;;;10.88;;
789;SDS011;378;48.844;9.156;2023-07-02T10:11:32;20.75;;;10.60;;
789;SDS011;378;48.844;9.156;2023-07-02T10:14:00;22.40;;;10.90;;
789;SDS011;378;48.844;9.156;2023-07-02T10:16:27;22.80;;;11.00;;
789;SDS011;378;48.844;9.156;2023-07-02T10:19:07;20.90;;;11.43;;
789;SDS011;378;48.844;9.156;2023-07-02T10:21:34;20.60;;;10.98;;
789;SDS011;378;48.844;9.156;2023-07-02T10:24:10;22.63;;;11.32;;
789;SDS011;378;48.844;9.156;2023-07-02T10:26:37;22.95;;;11.23;;
789;SDS011;378;48.844;9.156;2023-07-02T10:29:05;21.00;;;10.93;;
789;SDS011;378;48.844;9.156;2023-07-02T10:31:32;23.25;;;11.00;;
789;SDS011;378;48.844;9.156;2023-07-02T10:33:59;19.70;;;10.32;;
789;SDS011;378;48.844;9.156;2023-07-02T10:36:26;20.08;;;9.95;;
789;SDS011;378;48.844;9.156;2023-07-02T10:38:53;18.23;;;9.77;;
789;SDS011;378;48.844;9.156;2023-07-02T10:41:29;15.65;;;9.45;;
789;SDS011;378;48.844;9.156;2023-07-02T10:44:04;21.17;;;11.10;;
789;SDS011;378;48.844;9.156;2023-07-02T10:46:32;27.35;;;13.25;;
789;SDS011;378;48.844;9.156;2023-07-02T10:48:58;26.08;;;12.18;;
789;SDS011;378;48.844;9.156;2023-07-02T10:51:25;26.30;;;12.25;;
789;SDS011;378;48.844;9.156;2023-07-02T10:53:56;22.77;;;12.35;;
789;SDS011;378;48.844;9.156;2023-07-02T10:56:24;25.08;;;12.80;;
789;SDS011;378;48.844;9.156;2023-07-02T10:58:53;20.10;;;11.77;;
789;SDS011;378;48.844;9.156;2023-07-02T11:01:23;21.98;;;12.00;;
789;SDS011;378;48.844;9.156;2023-07-02T11:03:58;22.05;;;11.20;;
789;SDS011;378;48.844;9.156;2023-07-02T11:06:26;22.00;;;11.40;;
789;SDS011;378;48.844;9.156;2023-07-02T11:08:53;20.45;;;10.75;;
789;SDS011;378;48.844;9.156;2023-07-02T11:11:21;18.67;;;10.35;;
789;SDS011;378;48.844;9.156;2023-07-02T11:13:49;19.08;;;9.70;;
789;SDS011;378;48.844;9.156;2023-07-02T11:16:19;20.27;;;10.30;;
789;SDS011;378;48.844;9.156;2023-07-02T11:18:49;18.83;;;9.85;;
789;SDS011;378;48.844;9.156;2023-07-02T11:21:16;21.48;;;10.55;;
789;SDS011;378;48.844;9.156;2023-07-02T11:23:43;19.55;;;11.25;;
789;SDS011;378;48.844;9.156;2023-07-02T11:26:10;22.85;;;11.57;;
789;SDS011;378;48.844;9.156;2023-07-02T11:28:46;25.05;;;11.50;;
789;SDS011;378;48.844;9.156;2023-07-02T11:31:14;22.70;;;11.82;;
789;SDS011;378;48.844;9.156;2023-07-02T11:33:52;25.23;;;11.75;;
789;SDS011;378;48.844;9.156;2023-07-02T11:36:20;24.25;;;11.52;;
789;SDS011;378;48.844;9.156;2023-07-02T11:38:49;24.83;;;11.55;;
789;SDS011;378;48.844;9.156;2023-07-02T11:41:17;22.73;;;10.93;;
789;SDS011;378;48.844;9.156;2023-07-02T11:43:45;20.20;;;10.50;;
789;SDS011;378;48.844;9.156;2023-07-02T11:46:13;18.27;;;10.13;;
789;SDS011;378;48.844;9.156;2023-07-02T11:48:41;18.95;;;10.50;;
789;SDS011;378;48.844;9.156;2023-07-02T11:51:08;20.38;;;10.70;;
789;SDS011;378;48.844;9.156;2023-07-02T11:53:35;20.73;;;11.10;;
789;SDS011;378;48.844;9.156;2023-07-02T11:56:02;20.63;;;11.60;;
789;SDS011;378;48.844;9.156;2023-07-02T11:58:29;25.48;;;12.48;;
789;SDS011;378;48.844;9.156;2023-07-02T12:00:56;21.85;;;11.80;;
789;SDS011;378;48.844;9.156;2023-07-02T12:03:23;23.13;;;11.68;;
789;SDS011;378;48.844;9.156;2023-07-02T12:05:51;22.98;;;11.18;;
789;SDS011;378;48.844;9.156;2023-07-02T12:08:18;19.40;;;11.23;;
789;SDS011;378;48.844;9.156;2023-07-02T12:10:44;20.00;;;11.38;;
789;SDS011;378;48.844;9.156;2023-07-02T12:13:11;22.95;;;11.65;;
789;SDS011;378;48.844;9.156;2023-07-02T12:15:38;22.13;;;10.82;;
789;SDS011;378;48.844;9.156;2023-07-02T12:18:06;27.50;;;12.27;;
789;SDS011;378;48.844;9.156;2023-07-02T12:20:34;18.52;;;10.63;;
789;SDS011;378;48.844;9.156;2023-07-02T12:23:02;23.23;;;11.80;;
789;SDS011;378;48.844;9.156;2023-07-02T12:25:30;22.30;;;11.48;;
789;SDS011;378;48.844;9.156;2023-07-02T12:27:57;23.00;;;11.77;;
789;SDS011;378;48.844;9.156;2023-07-02T12:30:24;19.20;;;11.25;;
789;SDS011;378;48.844;9.156;2023-07-02T12:32:51;23.65;;;11.40;;
789;SDS011;378;48.844;9.156;2023-07-02T12:35:18;20.63;;;11.90;;
789;SDS011;378;48.844;9.156;2023-07-02T12:37:44;22.85;;;11.95;;
789;SDS011;378;48.844;9.156;2023-07-02T12:40:13;24.75;;;12.30;;
789;SDS011;378;48.844;9.156;2023-07-02T12:42:41;21.42;;;11.00;;
789;SDS011;378;48.844;9.156;2023-07-02T12:45:09;22.23;;;10.85;;
789;SDS011;378;48.844;9.156;2023-07-02T12:47:37;20.38;;;10.82;;
789;SDS011;378;48.844;9.156;2023-07-02T12:50:04;16.67;;;10.18;;
789;SDS011;378;48.844;9.156;2023-07-02T12:52:31;20.58;;;10.90;;
789;SDS011;378;48.844;9.156;2023-07-02T12:54:59;21.25;;;11.25;;
789;SDS011;378;48.844;9.156;2023-07-02T12:57:27;21.70;;;11.88;;
789;SDS011;378;48.844;9.156;2023-07-02T12:59:54;21.73;;;12.32;;
789;SDS011;378;48.844;9.156;2023-07-02T13:02:21;20.88;;;11.52;;
789;SDS011;378;48.844;9.156;2023-07-02T13:04:49;22.42;;;12.65;;
789;SDS011;378;48.844;9.156;2023-07-02T13:07:16;25.90;;;12.13;;
789;SDS011;378;48.844;9.156;2023-07-02T13:09:43;20.25;;;11.82;;
789;SDS011;378;48.844;9.156;2023-07-02T13:12:10;20.80;;;11.45;;
789;SDS011;378;48.844;9.156;2023-07-02T13:14:38;20.20;;;11.20;;
789;SDS011;378;48.844;9.156;2023-07-02T13:17:05;21.73;;;12.05;;
789;SDS011;378;48.844;9.156;2023-07-02T13:19:32;18.33;;;11.07;;
789;SDS011;378;48.844;9.156;2023-07-02T13:22:00;20.55;;;10.93;;
789;SDS011;378;48.844;9.156;2023-07-02T13:24:28;19.63;;;12.07;;
789;SDS011;378;48.844;9.156;2023-07-02T13:26:59;18.40;;;11.40;;
789;SDS011;378;48.844;9.156;2023-07-02T13:29:26;19.40;;;11.20;;
789;SDS011;378;48.844;9.156;2023-07-02T13:31:55;22.50;;;11.05;;
789;SDS011;378;48.844;9.156;2023-07-02T13:34:21;20.88;;;11.93;;
789;SDS011;378;48.844;9.156;2023-07-02T13:36:48;22.92;;;11.93;;
789;SDS011;378;48.844;9.156;2023-07-02T13:39:15;23.25;;;11.88;;
789;SDS011;378;48.844;9.156;2023-07-02T13:41:42;18.98;;;11.60;;
789;SDS011;378;48.844;9.156;2023-07-02T13:44:09;20.85;;;11.68;;
789;SDS011;378;48.844;9.156;2023-07-02T13:46:36;18.55;;;11.15;;
789;SDS011;378;48.844;9.156;2023-07-02T13:49:04;20.75;;;11.25;;
789;SDS011;378;48.844;9.156;2023-07-02T13:51:31;23.38;;;11.00;;
789;SDS011;378;48.844;9.156;2023-07-02T13:53:58;19.65;;;11.05;;
789;SDS011;378;48.844;9.156;2023-07-02T13:56:24;20.15;;;11.00;;
789;SDS011;378;48.844;9.156;2023-07-02T13:59:03;22.05;;;11.65;;
789;SDS011;378;48.844;9.156;2023-07-02T14:01:30;20.02;;;11.95;;
789;SDS011;378;48.844;9.156;2023-07-02T14:03:58;18.52;;;11.07;;
789;SDS011;378;48.844;9.156;2023-07-02T14:06:26;21.17;;;11.52;;
789;SDS011;378;48.844;9.156;2023-07-02T14:08:53;21.45;;;11.10;;
789;SDS011;378;48.844;9.156;2023-07-02T14:11:20;22.30;;;11.57;;
789;SDS011;378;48.844;9.156;2023-07-02T14:13:48;20.58;;;11.15;;
789;SDS011;378;48.844;9.156;2023-07-02T14:16:16;18.52;;;10.48;;
789;SDS011;378;48.844;9.156;2023-07-02T14:18:43;20.63;;;10.88;;
789;SDS011;378;48.844;9.156;2023-07-02T14:21:09;18.00;;;10.38;;
789;SDS011;378;48.844;9.156;2023-07-02T14:23:36;19.85;;;11.32;;
789;SDS011;378;48.844;9.156;2023-07-02T14:26:03;18.83;;;10.95;;
789;SDS011;378;48.844;9.156;2023-07-02T14:28:30;19.83;;;10.27;;
789;SDS011;378;48.844;9.156;2023-07-02T14:30:58;23.95;;;11.05;;
789;SDS011;378;48.844;9.156;2023-07-02T14:33:27;24.75;;;11.30;;
789;SDS011;378;48.844;9.156;2023-07-02T14:35:56;17.95;;;10.55;;
789;SDS011;378;48.844;9.156;2023-07-02T14:38:23;19.10;;;11.00;;
789;SDS011;378;48.844;9.156;2023-07-02T14:40:50;22.85;;;11.10;;
789;SDS011;378;48.844;9.156;2023-07-02T14:43:17;18.45;;;10.23;;
789;SDS011;378;48.844;9.156;2023-07-02T14:45:46;18.17;;;10.52;;
789;SDS011;378;48.844;9.156;2023-07-02T14:48:14;18.65;;;10.85;;
789;SDS011;378;48.844;9.156;2023-07-02T14:50:44;20.27;;;11.15;;
789;SDS011;378;48.844;9.156;2023-07-02T14:53:11;17.58;;;10.40;;
789;SDS011;378;48.844;9.156;2023-07-02T14:55:39;22.33;;;11.70;;
789;SDS011;378;48.844;9.156;2023-07-02T14:58:06;18.77;;;10.73;;
789;SDS011;378;48.844;9.156;2023-07-02T15:00:35;18.17;;;10.82;;
789;SDS011;378;48.844;9.156;2023-07-02T15:03:02;23.08;;;11.35;;
789;SDS011;378;48.844;9.156;2023-07-02T15:05:29;18.52;;;11.27;;
789;SDS011;378;48.844;9.156;2023-07-02T15:07:57;19.73;;;10.93;;
789;SDS011;378;48.844;9.156;2023-07-02T15:10:24;18.00;;;11.02;;
789;SDS011;378;48.844;9.156;2023-07-02T15:12:51;20.02;;;11.00;;
789;SDS011;378;48.844;9.156;2023-07-02T15:15:18;21.20;;;11.25;;
789;SDS011;378;48.844;9.156;2023-07-02T15:17:46;20.92;;;11.20;;
789;SDS011;378;48.844;9.156;2023-07-02T15:20:13;22.67;;;11.77;;
789;SDS011;378;48.844;9.156;2023-07-02T15:22:40;20.77;;;11.45;;
789;SDS011;378;48.844;9.156;2023-07-02T15:25:09;19.27;;;10.75;;
789;SDS011;378;48.844;9.156;2023-07-02T15:27:36;20.27;;;10.60;;
789;SDS011;378;48.844;9.156;2023-07-02T15:30:03;22.40;;;11.05;;